Time;durP1;ratioP1;P1;durP2;ratioP2;P2;SDS_P1;SDS_P2;PMS_P1;PMS_P2;Temp;Humidity;BMP_temperature;BMP_pressure;BME280_temperature;BME280_humidity;BME280_pressure;Samples;Min_cycle;Max_cycle;Signal;HPM_P1;HPM_P2
2021/01/20 00:01:52;;;;;;;4.50;3.75;;;;;;;;;;5057797;28;20208;-83
2021/01/20 00:04:20;;;;;;;4.93;3.58;;;;;;;;;;5058491;28;20476;-83
2021/01/20 00:06:47;;;;;;;5.13;4.50;;;;;;;;;;5057843;28;20461;-85
2021/01/20 00:09:15;;;;;;;5.25;3.35;;;;;;;;;;5058132;28;20198;-83
2021/01/20 00:11:42;;;;;;;4.07;3.72;;;;;;;;;;5058012;28;20208;-84
2021/01/20 00:14:10;;;;;;;4.22;3.88;;;;;;;;;;5058235;28;20282;-83
2021/01/20 00:16:37;;;;;;;5.88;3.80;;;;;;;;;;5057906;28;20201;-84
2021/01/20 00:19:04;;;;;;;7.68;4.70;;;;;;;;;;5058285;28;20273;-84
2021/01/20 00:21:32;;;;;;;5.28;3.97;;;;;;;;;;5058182;28;20232;-84
2021/01/20 00:23:59;;;;;;;4.55;4.00;;;;;;;;;;5056658;28;20202;-83
2021/01/20 00:26:25;;;;;;;5.93;4.00;;;;;;;;;;5057509;28;20247;-84
2021/01/20 00:28:52;;;;;;;6.82;4.07;;;;;;;;;;5047380;28;20197;-85
2021/01/20 00:31:19;;;;;;;9.75;4.68;;;;;;;;;;5048782;28;20460;-84
2021/01/20 00:33:46;;;;;;;4.57;4.18;;;;;;;;;;5049013;28;20202;-84
2021/01/20 00:36:14;;;;;;;5.18;4.20;;;;;;;;;;5057452;28;20224;-84
2021/01/20 00:38:41;;;;;;;7.65;4.20;;;;;;;;;;5057246;28;20628;-85
2021/01/20 00:41:08;;;;;;;7.50;5.47;;;;;;;;;;5057434;28;20188;-84
2021/01/20 00:43:35;;;;;;;4.32;3.92;;;;;;;;;;5047785;28;20193;-86
2021/01/20 00:46:02;;;;;;;5.53;4.13;;;;;;;;;;5055855;28;20551;-83
2021/01/20 00:48:29;;;;;;;7.03;4.97;;;;;;;;;;5054905;28;20209;-85
2021/01/20 00:50:57;;;;;;;5.70;4.00;;;;;;;;;;5057841;28;20216;-85
2021/01/20 00:53:24;;;;;;;8.57;5.57;;;;;;;;;;5058073;28;20244;-85
2021/01/20 00:55:52;;;;;;;7.57;4.72;;;;;;;;;;5056895;28;20196;-84
2021/01/20 00:58:19;;;;;;;5.07;3.75;;;;;;;;;;5057976;28;20220;-85
2021/01/20 01:00:46;;;;;;;5.82;4.25;;;;;;;;;;5057663;28;20182;-84
2021/01/20 01:03:13;;;;;;;6.35;5.03;;;;;;;;;;5057369;28;20208;-85
2021/01/20 01:05:39;;;;;;;5.72;4.40;;;;;;;;;;5057553;28;20551;-84
2021/01/20 01:08:07;;;;;;;5.88;4.45;;;;;;;;;;5057494;28;20221;-84
2021/01/20 01:10:33;;;;;;;7.65;4.05;;;;;;;;;;5057670;28;20206;-85
2021/01/20 01:13:01;;;;;;;6.45;4.50;;;;;;;;;;5057728;28;20473;-85
2021/01/20 01:15:29;;;;;;;5.13;4.28;;;;;;;;;;5057526;28;20178;-85
2021/01/20 01:17:56;;;;;;;5.10;4.40;;;;;;;;;;5057386;28;20188;-84
2021/01/20 01:20:23;;;;;;;7.38;4.47;;;;;;;;;;5057063;28;20201;-85
2021/01/20 01:22:50;;;;;;;5.80;4.40;;;;;;;;;;5057242;28;20190;-85
2021/01/20 01:25:17;;;;;;;5.72;3.90;;;;;;;;;;5057595;28;20193;-84
2021/01/20 01:27:44;;;;;;;4.88;4.10;;;;;;;;;;5057592;28;20196;-84
2021/01/20 01:30:14;;;;;;;5.90;3.63;;;;;;;;;;5056926;28;20617;-83
2021/01/20 01:32:41;;;;;;;5.20;3.70;;;;;;;;;;5040515;28;20193;-83
2021/01/20 01:35:08;;;;;;;4.78;3.83;;;;;;;;;;5057325;28;20452;-84
2021/01/20 01:37:35;;;;;;;4.95;3.70;;;;;;;;;;5060658;28;20607;-84
2021/01/20 01:40:02;;;;;;;3.75;3.13;;;;;;;;;;5061213;28;20186;-85
2021/01/20 01:42:30;;;;;;;5.03;3.50;;;;;;;;;;5060393;28;20198;-84
2021/01/20 01:44:57;;;;;;;5.25;3.60;;;;;;;;;;5060907;28;20186;-84
2021/01/20 01:47:25;;;;;;;3.53;3.03;;;;;;;;;;5060826;28;20620;-84
2021/01/20 01:49:56;;;;;;;6.20;3.42;;;;;;;;;;5061039;28;20217;-84
2021/01/20 01:52:25;;;;;;;6.25;4.00;;;;;;;;;;5060954;28;20255;-84
2021/01/20 01:54:53;;;;;;;4.65;3.33;;;;;;;;;;5060656;28;20281;-84
2021/01/20 01:57:21;;;;;;;3.53;3.03;;;;;;;;;;5060675;28;20202;-83
2021/01/20 01:59:50;;;;;;;4.85;3.45;;;;;;;;;;5060899;28;20570;-84
2021/01/20 02:02:17;;;;;;;5.95;2.97;;;;;;;;;;5060503;28;20196;-84
2021/01/20 02:04:45;;;;;;;5.13;3.55;;;;;;;;;;5060798;28;20192;-83
2021/01/20 02:07:13;;;;;;;5.60;3.20;;;;;;;;;;5060082;28;20225;-84
2021/01/20 02:09:40;;;;;;;4.78;3.00;;;;;;;;;;5060598;28;20213;-84
2021/01/20 02:12:41;;;;;;;3.90;3.13;;;;;;;;;;5060683;28;20186;-84
2021/01/20 02:15:15;;;;;;;7.97;3.40;;;;;;;;;;5060277;28;20243;-84
2021/01/20 02:17:46;;;;;;;7.43;3.47;;;;;;;;;;5026594;28;20258;-84
2021/01/20 02:20:47;;;;;;;5.30;3.65;;;;;;;;;;5060477;28;20186;-84
2021/01/20 02:23:17;;;;;;;3.10;2.80;;;;;;;;;;5060217;28;20174;-84
2021/01/20 02:26:05;;;;;;;6.15;3.63;;;;;;;;;;5060397;28;20193;-84
2021/01/20 02:28:46;;;;;;;4.18;3.30;;;;;;;;;;5060390;28;20518;-84
2021/01/20 02:31:15;;;;;;;3.88;2.97;;;;;;;;;;5060212;28;20287;-84
2021/01/20 02:33:46;;;;;;;4.20;3.35;;;;;;;;;;5060224;28;20209;-85
2021/01/20 02:36:14;;;;;;;4.68;3.28;;;;;;;;;;5060082;28;20222;-84
2021/01/20 02:38:42;;;;;;;3.67;2.90;;;;;;;;;;5060185;28;20224;-84
2021/01/20 02:41:09;;;;;;;5.40;3.33;;;;;;;;;;5060013;28;20259;-84
2021/01/20 02:43:36;;;;;;;5.18;3.58;;;;;;;;;;5060046;28;20185;-84
2021/01/20 02:46:03;;;;;;;5.78;3.33;;;;;;;;;;5059379;28;20243;-83
2021/01/20 02:48:31;;;;;;;3.63;3.28;;;;;;;;;;5059548;28;20252;-83
2021/01/20 02:50:59;;;;;;;5.97;3.63;;;;;;;;;;5059603;28;20527;-85
2021/01/20 02:53:27;;;;;;;4.40;3.40;;;;;;;;;;5059365;28;20586;-84
2021/01/20 02:55:58;;;;;;;3.13;2.90;;;;;;;;;;5059589;28;20196;-83
2021/01/20 02:58:29;;;;;;;4.22;2.88;;;;;;;;;;5059910;28;20239;-85
2021/01/20 03:00:56;;;;;;;5.95;3.25;;;;;;;;;;5059783;28;20209;-85
2021/01/20 03:03:26;;;;;;;3.53;3.30;;;;;;;;;;5059802;28;20182;-86
2021/01/20 03:05:54;;;;;;;4.85;3.05;;;;;;;;;;5059689;28;20190;-83
2021/01/20 03:08:21;;;;;;;4.97;2.83;;;;;;;;;;5059263;28;20251;-84
2021/01/20 03:10:48;;;;;;;3.35;3.05;;;;;;;;;;5059246;28;20217;-84
2021/01/20 03:13:15;;;;;;;3.35;2.95;;;;;;;;;;5059596;28;20186;-85
2021/01/20 03:15:42;;;;;;;4.85;2.85;;;;;;;;;;5059654;28;20182;-85
2021/01/20 03:18:10;;;;;;;5.18;3.88;;;;;;;;;;5059388;28;20186;-84
2021/01/20 03:20:37;;;;;;;4.68;3.28;;;;;;;;;;5059382;28;20193;-84
2021/01/20 03:23:05;;;;;;;5.47;2.83;;;;;;;;;;5059360;28;20185;-84
2021/01/20 03:25:32;;;;;;;6.00;3.33;;;;;;;;;;5059290;28;20186;-84
2021/01/20 03:27:59;;;;;;;4.45;3.17;;;;;;;;;;5059178;28;20244;-84
2021/01/20 03:30:26;;;;;;;4.03;3.13;;;;;;;;;;5059543;28;20229;-84
2021/01/20 03:32:53;;;;;;;4.38;3.80;;;;;;;;;;5059443;28;20182;-85
2021/01/20 03:35:20;;;;;;;3.22;2.90;;;;;;;;;;5058449;28;20198;-84
2021/01/20 03:37:47;;;;;;;6.57;3.67;;;;;;;;;;5058685;28;20234;-84
2021/01/20 03:40:15;;;;;;;3.65;2.67;;;;;;;;;;5059138;28;20244;-85
2021/01/20 03:42:42;;;;;;;3.65;3.33;;;;;;;;;;5059198;28;20619;-85
2021/01/20 03:45:10;;;;;;;3.45;2.83;;;;;;;;;;5059200;28;20487;-84
2021/01/20 03:47:37;;;;;;;4.82;3.10;;;;;;;;;;5058466;28;20251;-84
2021/01/20 03:50:05;;;;;;;3.88;3.10;;;;;;;;;;5058666;28;20205;-84
2021/01/20 03:52:32;;;;;;;4.95;3.33;;;;;;;;;;5008453;28;20392;-84
2021/01/20 03:54:59;;;;;;;4.68;3.33;;;;;;;;;;5058799;28;20260;-84
2021/01/20 03:57:27;;;;;;;3.10;2.75;;;;;;;;;;5058027;28;20193;-84
2021/01/20 03:59:54;;;;;;;3.95;3.33;;;;;;;;;;5058110;28;20243;-84
2021/01/20 04:02:21;;;;;;;4.85;3.45;;;;;;;;;;5058832;28;20186;-84
2021/01/20 04:04:47;;;;;;;3.65;2.80;;;;;;;;;;5058609;28;20185;-84
2021/01/20 04:07:14;;;;;;;6.35;3.00;;;;;;;;;;5058321;28;20229;-85
2021/01/20 04:09:41;;;;;;;4.15;3.30;;;;;;;;;;5058291;28;20197;-85
2021/01/20 04:12:08;;;;;;;3.95;3.05;;;;;;;;;;5057802;28;20222;-85
2021/01/20 04:14:36;;;;;;;3.85;3.53;;;;;;;;;;5057820;28;20202;-85
2021/01/20 04:17:03;;;;;;;3.55;3.25;;;;;;;;;;5058565;28;20190;-85
2021/01/20 04:19:30;;;;;;;3.80;3.28;;;;;;;;;;5008063;28;20205;-85
2021/01/20 04:21:57;;;;;;;3.80;2.80;;;;;;;;;;5058168;28;20201;-84
2021/01/20 04:24:24;;;;;;;3.67;2.72;;;;;;;;;;5057823;28;20205;-85
2021/01/20 04:26:51;;;;;;;4.00;3.60;;;;;;;;;;5057917;28;20284;-84
2021/01/20 04:29:18;;;;;;;3.63;3.33;;;;;;;;;;5058440;28;20190;-84
2021/01/20 04:31:45;;;;;;;3.70;3.25;;;;;;;;;;5058067;28;20233;-84
2021/01/20 04:34:12;;;;;;;4.05;2.95;;;;;;;;;;5058372;28;20182;-85
2021/01/20 04:36:39;;;;;;;3.90;2.50;;;;;;;;;;5058051;28;20241;-84
2021/01/20 04:39:06;;;;;;;3.67;3.08;;;;;;;;;;5058111;28;20614;-85
2021/01/20 04:41:34;;;;;;;3.05;2.55;;;;;;;;;;5058008;28;20185;-84
2021/01/20 04:44:01;;;;;;;2.90;2.63;;;;;;;;;;5058165;28;20267;-85
2021/01/20 04:46:30;;;;;;;3.28;2.72;;;;;;;;;;5058191;28;20182;-84
2021/01/20 04:48:57;;;;;;;4.93;3.42;;;;;;;;;;5058180;28;20190;-84
2021/01/20 04:51:25;;;;;;;3.40;3.10;;;;;;;;;;5057504;28;20484;-85
2021/01/20 04:53:54;;;;;;;3.40;2.72;;;;;;;;;;5057970;28;20202;-86
2021/01/20 04:56:21;;;;;;;3.75;2.88;;;;;;;;;;5058111;28;20532;-85
2021/01/20 04:58:52;;;;;;;5.68;3.67;;;;;;;;;;5057769;28;20532;-84
2021/01/20 05:01:20;;;;;;;3.08;2.55;;;;;;;;;;5057959;28;20192;-85
2021/01/20 05:03:47;;;;;;;3.78;3.25;;;;;;;;;;5058016;28;20477;-84
2021/01/20 05:06:15;;;;;;;4.03;3.05;;;;;;;;;;5057881;28;20202;-85
2021/01/20 05:08:42;;;;;;;3.20;2.58;;;;;;;;;;5057480;28;20271;-85
2021/01/20 05:11:09;;;;;;;3.50;2.63;;;;;;;;;;5061025;28;20477;-85
2021/01/20 05:13:36;;;;;;;3.13;2.83;;;;;;;;;;5062016;28;20190;-84
2021/01/20 05:16:03;;;;;;;6.07;3.25;;;;;;;;;;5061666;28;20189;-84
2021/01/20 05:18:48;;;;;;;3.40;2.83;;;;;;;;;;5061969;28;20178;-85
2021/01/20 05:21:19;;;;;;;4.18;2.72;;;;;;;;;;5061919;28;20186;-85
2021/01/20 05:23:46;;;;;;;3.85;3.30;;;;;;;;;;5061582;28;20215;-85
2021/01/20 05:26:13;;;;;;;3.17;2.58;;;;;;;;;;5061785;28;20186;-85
2021/01/20 05:28:40;;;;;;;3.33;3.05;;;;;;;;;;5061934;28;20177;-85
2021/01/20 05:31:07;;;;;;;3.40;2.78;;;;;;;;;;5060858;28;20266;-85
2021/01/20 05:33:38;;;;;;;4.53;3.20;;;;;;;;;;5061330;28;20475;-85
2021/01/20 05:36:07;;;;;;;4.03;3.10;;;;;;;;;;5061151;28;20225;-85
2021/01/20 05:38:40;;;;;;;3.55;2.70;;;;;;;;;;5061354;28;20225;-84
2021/01/20 05:41:29;;;;;;;3.67;3.20;;;;;;;;;;5061429;28;20190;-84
2021/01/20 05:44:11;;;;;;;4.68;3.05;;;;;;;;;;5059511;28;20198;-84
2021/01/20 05:46:40;;;;;;;4.07;3.00;;;;;;;;;;5061491;28;20185;-86
2021/01/20 05:49:08;;;;;;;3.90;3.25;;;;;;;;;;5061131;28;20182;-87
2021/01/20 05:51:39;;;;;;;3.72;3.22;;;;;;;;;;5061249;28;20221;-87
2021/01/20 05:54:08;;;;;;;3.85;3.47;;;;;;;;;;5061313;28;20182;-86
2021/01/20 05:56:35;;;;;;;6.85;3.28;;;;;;;;;;5061300;28;20439;-85
2021/01/20 05:59:09;;;;;;;4.28;3.13;;;;;;;;;;5061248;28;20189;-86
2021/01/20 06:01:36;;;;;;;4.43;3.28;;;;;;;;;;5060868;28;20197;-85
2021/01/20 06:04:06;;;;;;;3.80;2.95;;;;;;;;;;5060818;28;20178;-86
2021/01/20 06:06:33;;;;;;;4.10;3.70;;;;;;;;;;5060783;28;20518;-87
2021/01/20 06:09:02;;;;;;;3.95;3.35;;;;;;;;;;5060617;28;20496;-87
2021/01/20 06:11:29;;;;;;;4.60;3.03;;;;;;;;;;5060906;28;20205;-86
2021/01/20 06:13:56;;;;;;;3.33;3.03;;;;;;;;;;5061135;28;20178;-86
2021/01/20 06:16:25;;;;;;;3.53;3.00;;;;;;;;;;5060098;28;20251;-86
2021/01/20 06:18:56;;;;;;;5.05;3.60;;;;;;;;;;5060928;28;20201;-87
2021/01/20 06:21:23;;;;;;;4.85;2.97;;;;;;;;;;5060035;28;20197;-86
2021/01/20 06:23:57;;;;;;;4.43;3.30;;;;;;;;;;5060379;28;20198;-86
2021/01/20 06:26:26;;;;;;;3.10;2.85;;;;;;;;;;5060849;28;20200;-86
2021/01/20 06:28:57;;;;;;;4.65;2.97;;;;;;;;;;5060725;28;20186;-86
2021/01/20 06:31:25;;;;;;;3.88;3.45;;;;;;;;;;5060360;28;20200;-86
2021/01/20 06:33:52;;;;;;;3.60;3.30;;;;;;;;;;5060847;28;20197;-86
2021/01/20 06:36:32;;;;;;;3.60;2.60;;;;;;;;;;5060794;28;20239;-87
2021/01/20 06:38:59;;;;;;;4.28;3.10;;;;;;;;;;5060285;28;20224;-86
2021/01/20 06:41:40;;;;;;;4.20;3.40;;;;;;;;;;5060464;28;20190;-87
2021/01/20 06:44:10;;;;;;;5.15;3.45;;;;;;;;;;5060092;28;20570;-85
2021/01/20 06:46:37;;;;;;;4.10;3.50;;;;;;;;;;5060383;28;20193;-87
2021/01/20 06:49:12;;;;;;;3.92;3.05;;;;;;;;;;5060648;28;20189;-86
2021/01/20 06:51:40;;;;;;;3.78;3.13;;;;;;;;;;5060206;28;20185;-87
2021/01/20 06:54:13;;;;;;;3.88;2.72;;;;;;;;;;5060263;28;20268;-86
2021/01/20 06:56:46;;;;;;;3.65;3.30;;;;;;;;;;5060044;28;20191;-86
2021/01/20 06:59:22;;;;;;;3.22;2.80;;;;;;;;;;5059811;28;20190;-86
2021/01/20 07:02:15;;;;;;;3.28;2.95;;;;;;;;;;5060082;28;20192;-86
2021/01/20 07:05:07;;;;;;;3.45;3.00;;;;;;;;;;5059832;28;20220;-86
2021/01/20 07:07:54;;;;;;;3.78;3.22;;;;;;;;;;5059942;28;20245;-85
2021/01/20 07:10:24;;;;;;;5.97;3.17;;;;;;;;;;5060267;28;20277;-86
2021/01/20 07:13:18;;;;;;;4.13;3.50;;;;;;;;;;5059765;28;20297;-86
2021/01/20 07:15:55;;;;;;;4.25;2.67;;;;;;;;;;5059612;28;20188;-87
2021/01/20 07:18:24;;;;;;;4.60;3.65;;;;;;;;;;5059596;28;20177;-87
2021/01/20 07:20:53;;;;;;;4.90;3.03;;;;;;;;;;5059500;28;20209;-86
2021/01/20 07:23:20;;;;;;;3.72;3.35;;;;;;;;;;5059423;28;20531;-87
2021/01/20 07:25:50;;;;;;;3.80;3.47;;;;;;;;;;5059351;28;20567;-86
2021/01/20 07:28:19;;;;;;;4.93;3.15;;;;;;;;;;5059643;28;20189;-85
2021/01/20 07:30:47;;;;;;;4.25;3.45;;;;;;;;;;5059450;28;20186;-86
2021/01/20 07:33:17;;;;;;;4.80;3.60;;;;;;;;;;5059056;28;20228;-86
2021/01/20 07:35:43;;;;;;;4.22;3.40;;;;;;;;;;5059327;28;20193;-87
2021/01/20 07:38:11;;;;;;;4.97;3.58;;;;;;;;;;5059237;28;20240;-87
2021/01/20 07:40:39;;;;;;;4.60;3.90;;;;;;;;;;5059318;28;20186;-87
2021/01/20 07:43:07;;;;;;;4.40;3.22;;;;;;;;;;5059434;28;20186;-86
2021/01/20 07:45:39;;;;;;;5.60;3.40;;;;;;;;;;5059240;28;20190;-86
2021/01/20 07:48:09;;;;;;;3.38;3.08;;;;;;;;;;5058988;28;20271;-87
2021/01/20 07:50:42;;;;;;;2.67;2.47;;;;;;;;;;5059148;28;20209;-87
2021/01/20 07:53:12;;;;;;;4.15;3.38;;;;;;;;;;5059248;28;20205;-87
2021/01/20 07:55:39;;;;;;;4.20;3.25;;;;;;;;;;5059174;28;20178;-85
2021/01/20 07:58:06;;;;;;;3.55;2.38;;;;;;;;;;5041070;28;20476;-85
2021/01/20 08:00:43;;;;;;;3.65;2.90;;;;;;;;;;5058671;28;20192;-86
2021/01/20 08:03:11;;;;;;;3.28;2.97;;;;;;;;;;5058871;28;20193;-86
2021/01/20 08:05:41;;;;;;;3.80;3.33;;;;;;;;;;5058749;28;20208;-86
2021/01/20 08:08:13;;;;;;;3.10;2.53;;;;;;;;;;5058823;28;20222;-86
2021/01/20 08:10:42;;;;;;;5.88;2.90;;;;;;;;;;5059134;28;20194;-87
2021/01/20 08:13:12;;;;;;;3.67;3.00;;;;;;;;;;5058981;28;20216;-86
2021/01/20 08:15:41;;;;;;;3.45;2.78;;;;;;;;;;5058488;28;20178;-85
2021/01/20 08:18:12;;;;;;;4.00;3.55;;;;;;;;;;5058399;28;20531;-86
2021/01/20 08:20:39;;;;;;;4.10;2.88;;;;;;;;;;5058731;28;20441;-86
2021/01/20 08:23:14;;;;;;;3.47;2.90;;;;;;;;;;5058675;28;20461;-86
2021/01/20 08:25:42;;;;;;;4.93;2.95;;;;;;;;;;5058635;28;20177;-86
2021/01/20 08:28:13;;;;;;;3.10;2.88;;;;;;;;;;5058317;28;20178;-86
2021/01/20 08:30:40;;;;;;;3.42;2.78;;;;;;;;;;5058613;28;20186;-88
2021/01/20 08:33:07;;;;;;;3.28;2.97;;;;;;;;;;5058806;28;20226;-88
2021/01/20 08:35:38;;;;;;;3.80;3.25;;;;;;;;;;5058794;28;20189;-87
2021/01/20 08:38:06;;;;;;;3.88;2.90;;;;;;;;;;5058372;28;20217;-86
2021/01/20 08:40:33;;;;;;;3.88;3.28;;;;;;;;;;5058413;28;20190;-87
2021/01/20 08:43:00;;;;;;;4.90;3.17;;;;;;;;;;5058726;28;20197;-87
2021/01/20 08:45:33;;;;;;;3.47;2.83;;;;;;;;;;5057551;28;20239;-86
2021/01/20 08:48:04;;;;;;;3.38;2.95;;;;;;;;;;5058136;28;20185;-87
2021/01/20 08:50:40;;;;;;;6.35;4.00;;;;;;;;;;5057940;28;20189;-87
2021/01/20 08:53:10;;;;;;;4.00;3.70;;;;;;;;;;5008514;28;20221;-85
2021/01/20 08:55:38;;;;;;;4.30;3.10;;;;;;;;;;5008082;28;20201;-86
2021/01/20 08:58:27;;;;;;;3.90;3.25;;;;;;;;;;5058012;28;20185;-86
2021/01/20 09:00:59;;;;;;;4.03;3.65;;;;;;;;;;5058103;28;20288;-86
2021/01/20 09:03:28;;;;;;;2.72;2.33;;;;;;;;;;5008110;28;20201;-85
2021/01/20 09:05:57;;;;;;;3.10;2.58;;;;;;;;;;5058049;28;20182;-86
2021/01/20 09:08:26;;;;;;;4.45;3.30;;;;;;;;;;5058038;28;20221;-85
2021/01/20 09:10:54;;;;;;;3.63;2.83;;;;;;;;;;5058129;28;20182;-86
2021/01/20 09:13:21;;;;;;;2.83;2.38;;;;;;;;;;5057701;28;20197;-86
2021/01/20 09:15:50;;;;;;;3.95;3.65;;;;;;;;;;5057993;28;20565;-86
2021/01/20 09:18:18;;;;;;;3.10;2.80;;;;;;;;;;5058515;28;20289;-86
2021/01/20 09:20:46;;;;;;;4.32;2.70;;;;;;;;;;5057944;28;20186;-86
2021/01/20 09:23:14;;;;;;;3.42;2.80;;;;;;;;;;5057991;28;20198;-86
2021/01/20 09:25:41;;;;;;;3.72;3.25;;;;;;;;;;5057960;28;20239;-86
2021/01/20 09:28:09;;;;;;;3.85;3.15;;;;;;;;;;5057924;28;20182;-86
2021/01/20 09:30:36;;;;;;;3.45;3.15;;;;;;;;;;5057923;28;20178;-86
2021/01/20 09:33:04;;;;;;;4.60;2.78;;;;;;;;;;5057523;28;20206;-86
2021/01/20 09:35:31;;;;;;;3.00;2.67;;;;;;;;;;5057884;28;20190;-86
2021/01/20 09:37:58;;;;;;;4.18;2.70;;;;;;;;;;5057454;28;20226;-86
2021/01/20 09:40:28;;;;;;;5.22;3.28;;;;;;;;;;5057495;28;20186;-86
2021/01/20 09:42:55;;;;;;;3.97;3.15;;;;;;;;;;5057739;28;20182;-86
2021/01/20 09:45:26;;;;;;;3.75;2.83;;;;;;;;;;5057781;28;20200;-86
2021/01/20 09:47:54;;;;;;;3.22;2.80;;;;;;;;;;5057788;28;20450;-86
2021/01/20 09:50:21;;;;;;;3.10;2.78;;;;;;;;;;5058159;28;20559;-86
2021/01/20 09:52:48;;;;;;;3.72;2.50;;;;;;;;;;5057247;28;20201;-87
2021/01/20 09:55:15;;;;;;;5.18;2.95;;;;;;;;;;5057422;28;20288;-87
2021/01/20 09:57:43;;;;;;;5.30;2.80;;;;;;;;;;5059880;28;20192;-86
2021/01/20 10:00:12;;;;;;;4.25;2.50;;;;;;;;;;5061327;28;20209;-86
2021/01/20 10:02:40;;;;;;;5.00;3.08;;;;;;;;;;5061099;28;20216;-85
2021/01/20 10:05:11;;;;;;;3.63;2.72;;;;;;;;;;5057801;28;20202;-86
2021/01/20 10:07:38;;;;;;;4.53;2.75;;;;;;;;;;5060569;28;20283;-86
2021/01/20 10:10:07;;;;;;;4.47;3.00;;;;;;;;;;5060288;28;20236;-85
2021/01/20 10:12:34;;;;;;;4.47;2.78;;;;;;;;;;5060707;28;20449;-85
2021/01/20 10:15:02;;;;;;;3.53;2.80;;;;;;;;;;5060919;28;20205;-86
2021/01/20 10:17:29;;;;;;;8.25;2.83;;;;;;;;;;5060888;28;20192;-86
2021/01/20 10:19:56;;;;;;;3.85;2.50;;;;;;;;;;5060992;28;20520;-87
2021/01/20 10:22:23;;;;;;;3.20;2.90;;;;;;;;;;5060058;28;20202;-85
2021/01/20 10:24:50;;;;;;;3.28;2.97;;;;;;;;;;5060422;28;20189;-87
2021/01/20 10:27:17;;;;;;;3.20;2.90;;;;;;;;;;5056955;28;20194;-87
2021/01/20 10:29:44;;;;;;;3.30;2.80;;;;;;;;;;5059255;28;20551;-87
2021/01/20 10:32:12;;;;;;;3.60;2.78;;;;;;;;;;5055258;28;20199;-85
2021/01/20 10:34:39;;;;;;;3.15;2.75;;;;;;;;;;5059623;28;20217;-88
2021/01/20 10:37:06;;;;;;;4.28;3.63;;;;;;;;;;5059927;28;20599;-87
2021/01/20 10:39:33;;;;;;;3.40;3.10;;;;;;;;;;5060616;28;20182;-88
2021/01/20 10:42:00;;;;;;;3.13;2.88;;;;;;;;;;5060590;28;20209;-89
2021/01/20 10:44:26;;;;;;;3.45;3.15;;;;;;;;;;5060011;28;20186;-88
2021/01/20 10:46:53;;;;;;;3.60;3.10;;;;;;;;;;5060515;28;20182;-91
2021/01/20 10:49:21;;;;;;;4.90;3.70;;;;;;;;;;5060886;28;20186;-88
2021/01/20 10:51:49;;;;;;;2.88;2.67;;;;;;;;;;5060261;28;20182;-88
2021/01/20 10:54:16;;;;;;;3.50;3.20;;;;;;;;;;5051176;28;20259;-88
2021/01/20 10:56:43;;;;;;;3.72;3.15;;;;;;;;;;5040621;28;20208;-86
2021/01/20 10:59:10;;;;;;;2.70;2.50;;;;;;;;;;5058504;28;20275;-85
2021/01/20 11:01:37;;;;;;;2.58;2.35;;;;;;;;;;5059802;28;20202;-85
2021/01/20 11:04:05;;;;;;;2.65;2.45;;;;;;;;;;5059441;28;20217;-86
2021/01/20 11:06:32;;;;;;;2.83;2.50;;;;;;;;;;5060025;28;20204;-86
2021/01/20 11:09:00;;;;;;;3.45;2.85;;;;;;;;;;5058923;28;20606;-87
2021/01/20 11:11:27;;;;;;;2.92;2.60;;;;;;;;;;5059396;28;20281;-87
2021/01/20 11:13:54;;;;;;;3.05;2.75;;;;;;;;;;5059656;28;20209;-87
2021/01/20 11:16:21;;;;;;;3.40;2.78;;;;;;;;;;5059866;28;20188;-88
2021/01/20 11:18:50;;;;;;;4.25;3.42;;;;;;;;;;5059305;28;20202;-88
2021/01/20 11:21:17;;;;;;;3.90;3.50;;;;;;;;;;5059521;28;20567;-87
2021/01/20 11:23:45;;;;;;;3.25;2.88;;;;;;;;;;5059131;28;20201;-85
2021/01/20 11:26:12;;;;;;;2.60;2.40;;;;;;;;;;5122828;22;20230;-86
2021/01/20 11:28:40;;;;;;;3.30;3.00;;;;;;;;;;5066872;28;20209;-84
2021/01/20 11:31:06;;;;;;;3.13;2.83;;;;;;;;;;5079117;28;20193;-86
2021/01/20 11:33:33;;;;;;;7.70;5.63;;;;;;;;;;5079245;28;20478;-86
2021/01/20 11:36:00;;;;;;;5.57;3.17;;;;;;;;;;5078537;28;20250;-86
2021/01/20 11:38:27;;;;;;;4.20;3.00;;;;;;;;;;5078162;28;20201;-86
2021/01/20 11:40:55;;;;;;;6.57;5.03;;;;;;;;;;5078960;28;20209;-86
2021/01/20 11:43:22;;;;;;;3.45;3.00;;;;;;;;;;5079351;28;20191;-86
2021/01/20 11:45:49;;;;;;;3.53;2.95;;;;;;;;;;5078246;28;20453;-87
2021/01/20 11:48:16;;;;;;;3.70;3.08;;;;;;;;;;5078958;28;20201;-87
2021/01/20 11:50:43;;;;;;;3.38;2.92;;;;;;;;;;5078480;28;20185;-87
2021/01/20 11:53:10;;;;;;;4.15;3.55;;;;;;;;;;5078814;28;20186;-85
2021/01/20 11:55:37;;;;;;;4.40;3.60;;;;;;;;;;5078493;28;20219;-84
2021/01/20 11:58:04;;;;;;;3.95;3.17;;;;;;;;;;5077209;28;20217;-84
2021/01/20 12:00:31;;;;;;;5.95;3.78;;;;;;;;;;5077829;28;20197;-85
2021/01/20 12:02:58;;;;;;;3.88;2.92;;;;;;;;;;5079068;28;20200;-86
2021/01/20 12:05:25;;;;;;;3.47;2.60;;;;;;;;;;5078035;28;20197;-85
2021/01/20 12:07:52;;;;;;;3.42;3.08;;;;;;;;;;5078548;28;20459;-85
2021/01/20 12:10:19;;;;;;;3.17;2.20;;;;;;;;;;5078518;28;20550;-86
2021/01/20 12:12:46;;;;;;;3.05;2.75;;;;;;;;;;5078399;28;20187;-86
2021/01/20 12:15:14;;;;;;;3.63;2.88;;;;;;;;;;5077620;28;20240;-84
2021/01/20 12:17:43;;;;;;;4.32;3.45;;;;;;;;;;5078274;28;20254;-87
2021/01/20 12:20:12;;;;;;;3.40;2.85;;;;;;;;;;5075036;28;20255;-87
2021/01/20 12:22:39;;;;;;;4.13;2.38;;;;;;;;;;5070070;28;20204;-87
2021/01/20 12:25:07;;;;;;;3.42;3.05;;;;;;;;;;5077426;28;20197;-87
2021/01/20 12:27:37;;;;;;;2.95;2.50;;;;;;;;;;4966172;28;20614;-88
2021/01/20 12:30:06;;;;;;;2.53;2.33;;;;;;;;;;4958677;29;20200;-86
2021/01/20 12:32:34;;;;;;;3.45;2.80;;;;;;;;;;4958946;29;20501;-85
2021/01/20 12:35:01;;;;;;;2.50;2.35;;;;;;;;;;4960743;28;20303;-86
2021/01/20 12:37:28;;;;;;;4.63;3.00;;;;;;;;;;4976803;28;20219;-86
2021/01/20 12:39:55;;;;;;;4.55;2.85;;;;;;;;;;4958156;28;21151;-87
2021/01/20 12:42:22;;;;;;;3.90;2.53;;;;;;;;;;4975033;28;20215;-88
2021/01/20 12:44:49;;;;;;;3.00;2.70;;;;;;;;;;4977984;28;20216;-88
2021/01/20 12:47:16;;;;;;;2.58;2.20;;;;;;;;;;4959253;29;20205;-88
2021/01/20 12:49:44;;;;;;;3.72;2.78;;;;;;;;;;4958944;29;20655;-89
2021/01/20 12:52:11;;;;;;;2.92;2.67;;;;;;;;;;5008306;28;20288;-88
2021/01/20 12:54:38;;;;;;;4.07;2.97;;;;;;;;;;5058183;28;20213;-88
2021/01/20 12:57:05;;;;;;;3.00;2.78;;;;;;;;;;5057912;28;20224;-88
2021/01/20 12:59:32;;;;;;;2.50;2.30;;;;;;;;;;5058282;28;20194;-88
2021/01/20 13:01:59;;;;;;;2.50;2.30;;;;;;;;;;5058359;28;20182;-89
2021/01/20 13:04:27;;;;;;;3.15;2.60;;;;;;;;;;5070655;28;20303;-88
2021/01/20 13:06:54;;;;;;;3.22;2.65;;;;;;;;;;5078757;28;20274;-88
2021/01/20 13:09:21;;;;;;;6.43;3.28;;;;;;;;;;5078482;28;20181;-87
2021/01/20 13:11:48;;;;;;;4.18;2.55;;;;;;;;;;5078060;28;20204;-87
2021/01/20 13:14:16;;;;;;;3.80;2.83;;;;;;;;;;5078395;28;20225;-88
2021/01/20 13:16:44;;;;;;;2.33;2.00;;;;;;;;;;5077999;28;20182;-88
2021/01/20 13:19:11;;;;;;;4.60;2.80;;;;;;;;;;5078127;28;20208;-88
2021/01/20 13:21:38;;;;;;;3.92;2.53;;;;;;;;;;5078123;28;20196;-88
2021/01/20 13:24:07;;;;;;;2.95;2.65;;;;;;;;;;5078182;28;20186;-89
2021/01/20 13:26:35;;;;;;;3.38;2.53;;;;;;;;;;5077763;28;20232;-88
2021/01/20 13:29:02;;;;;;;4.78;2.60;;;;;;;;;;5077493;28;20223;-88
2021/01/20 13:31:29;;;;;;;2.80;2.60;;;;;;;;;;5079454;28;20199;-88
2021/01/20 13:33:56;;;;;;;12.88;2.58;;;;;;;;;;5081501;28;20189;-89
2021/01/20 13:36:23;;;;;;;3.30;3.03;;;;;;;;;;5081519;28;20197;-88
2021/01/20 13:38:49;;;;;;;3.88;2.60;;;;;;;;;;5081815;28;20185;-87
2021/01/20 13:41:17;;;;;;;7.50;3.50;;;;;;;;;;5081366;28;20554;-87
2021/01/20 13:43:44;;;;;;;3.05;2.70;;;;;;;;;;5081943;28;20188;-89
2021/01/20 13:46:12;;;;;;;2.67;2.42;;;;;;;;;;5081297;28;20185;-87
2021/01/20 13:48:39;;;;;;;4.72;2.42;;;;;;;;;;5081974;28;20259;-88
2021/01/20 13:51:06;;;;;;;4.10;2.72;;;;;;;;;;5081066;28;20200;-87
2021/01/20 13:53:33;;;;;;;3.92;2.15;;;;;;;;;;5082311;28;20201;-89
2021/01/20 13:56:00;;;;;;;3.33;2.35;;;;;;;;;;5081791;28;20566;-89
2021/01/20 13:58:28;;;;;;;5.50;2.67;;;;;;;;;;5081738;28;20193;-87
2021/01/20 14:00:55;;;;;;;2.58;2.20;;;;;;;;;;5080675;28;20189;-88
2021/01/20 14:03:22;;;;;;;3.03;2.72;;;;;;;;;;5081252;28;20177;-89
2021/01/20 14:05:49;;;;;;;5.85;2.65;;;;;;;;;;5081446;28;20196;-88
2021/01/20 14:08:16;;;;;;;3.35;2.47;;;;;;;;;;5080990;28;20461;-88
2021/01/20 14:10:43;;;;;;;3.13;2.83;;;;;;;;;;5081271;28;20178;-88
2021/01/20 14:13:10;;;;;;;4.15;2.63;;;;;;;;;;5080797;28;20185;-87
2021/01/20 14:15:38;;;;;;;3.33;2.20;;;;;;;;;;5080826;28;20296;-88
2021/01/20 14:18:07;;;;;;;5.95;3.13;;;;;;;;;;5081969;28;20186;-89
2021/01/20 14:20:34;;;;;;;4.40;3.00;;;;;;;;;;5081210;28;20197;-89
2021/01/20 14:23:02;;;;;;;4.50;3.83;;;;;;;;;;5080870;28;20189;-88
2021/01/20 14:25:29;;;;;;;5.90;3.13;;;;;;;;;;5080865;28;20347;-88
2021/01/20 14:27:56;;;;;;;4.13;2.58;;;;;;;;;;5080316;28;20243;-88
2021/01/20 14:30:23;;;;;;;5.85;3.22;;;;;;;;;;5080966;28;20477;-88
2021/01/20 14:32:51;;;;;;;2.97;2.65;;;;;;;;;;5080407;28;20269;-89
2021/01/20 14:35:20;;;;;;;5.35;2.95;;;;;;;;;;5078915;28;20231;-89
2021/01/20 14:37:47;;;;;;;4.80;2.45;;;;;;;;;;5081272;28;20551;-87
2021/01/20 14:40:15;;;;;;;4.10;2.30;;;;;;;;;;5080607;28;20197;-89
2021/01/20 14:42:42;;;;;;;5.20;2.40;;;;;;;;;;5080006;28;20201;-87
2021/01/20 14:45:10;;;;;;;2.95;2.20;;;;;;;;;;5080989;28;20227;-86
2021/01/20 14:47:37;;;;;;;2.70;1.95;;;;;;;;;;5079365;28;20201;-87
2021/01/20 14:50:06;;;;;;;4.22;2.28;;;;;;;;;;5080498;28;20200;-87
2021/01/20 14:52:33;;;;;;;4.55;2.58;;;;;;;;;;5081130;28;20236;-87